Bojnik Airport

RS-0002 · Central Serbia, Serbia

使用的METAR站距离机场39 km。
罗盘
风向 的 风向 100° Bojnik Airport 1/19
风: 10 kt, 3 beaufort

2 kt

10 kt
改变
0 ft 1.000 2.000 3.000 4.000 5.000
CAVOK
METAR LYNI 252030Z 10010KT CAVOK 20/10 Q1015 NOSIG

METAR Bojnik Airport - RS-0002

Bojnik Airport是,Serbia中的小机场。 该机场位于纬度42,99770和经度21,72182。 该机场有一条跑道: 1/19. 这个机场没有ICAO代码,我们使用RS-0002作为参考。 机场在Beograd FIR中。

该航空气象观测是针对Nis Airport在2024年5月25日 22:30, 当地时间进行的。

机场观察

风向为100°,速度为10 kt。

天气为CAVOK。这意味着在5.000 ft或MSA(最低安全高度)以下(以较高者为准)以下没有云。这也意味着没有观测到积雨云或高耸的积云,可见度为10 km 或者更多或更高。此外,不会有雾,降雨或其他重要天气。

温度和风寒是20 °C。 露点为10 °C,相对湿度为53%。 海平面上的气压为1015 hPa (QNH)。

白天

今天,太阳从05:00升起,在19:59降落。 这适用于Bojnik Airport,世界夏令时可能有所不同。 当地时间与世界标准时间之间的时差为+2 小时。 夏令时目前正在进行中。

公司介绍

我们没有关于这个机场的公司信息。

体会

到Vliegles.nl去找飞行课程,跳伞和其他飞行体验。 浏览页面,了解Bojnik Airport附近所有可用的活动。 你也可以使用搜索功能来寻找你所在地附近的特定飞行课程、跳伞或其他飞行体验。

跑道

Id 标题 侧风 逆风 侧风 %
1/19 356°-176° 10 kt 2 kt 97 %

逆风成分最大的方向会被突出显示,并用于横风计算。 这并不一定意味着这个方向在使用。

温度 & 天气

温度 20 °C
露点 10 °C
相对湿度 53%
Kp-index 1 (0-9)

白天

日出
04:58 (6:20)
中午
12:29
日落
20:00

小工具

你想在你的网站上有一个关于Bojnik Airport的当前航空天气(METAR)的小部件吗?

显示HTML代码
报告变更